Time;durP1;ratioP1;P1;durP2;ratioP2;P2;SDS_P1;SDS_P2;PMS_P1;PMS_P2;Temp;Humidity;BMP_temperature;BMP_pressure;BME280_temperature;BME280_humidity;BME280_pressure;Samples;Min_cycle;Max_cycle;Signal;HPM_P1;HPM_P2
2021/06/10 00:00:15;;;;;;;38.42;27.10;;;16.40;81.10;;;;;;5049584;28;20105;-65
2021/06/10 00:02:41;;;;;;;;;;;16.60;81.80;;;;;;5046560;28;20093;-64
2021/06/10 00:05:09;;;;;;;35.92;24.77;;;16.40;83.60;;;;;;5044154;28;20438;-65
2021/06/10 00:07:36;;;;;;;37.00;25.95;;;16.40;83.80;;;;;;5045087;28;20103;-65
2021/06/10 00:10:13;;;;;;;33.97;23.85;;;17.70;85.20;;;;;;5047157;28;20162;-65
2021/06/10 00:12:40;;;;;;;39.83;27.42;;;16.40;83.10;;;;;;5050118;28;20085;-65
2021/06/10 00:15:08;;;;;;;36.97;26.48;;;16.30;84.50;;;;;;5049291;28;20090;-66
2021/06/10 00:17:34;;;;;;;36.28;25.75;;;16.30;84.10;;;;;;5047734;28;20512;-65
2021/06/10 00:20:00;;;;;;;31.58;24.42;;;16.20;83.10;;;;;;5048452;28;20180;-65
2021/06/10 00:22:26;;;;;;;38.22;27.35;;;16.20;83.50;;;;;;5050918;28;20188;-64
2021/06/10 00:24:52;;;;;;;34.22;25.20;;;16.10;83.70;;;;;;5049783;28;20539;-64
2021/06/10 00:27:21;;;;;;;32.45;24.08;;;16.10;84.10;;;;;;5066358;28;20109;-66
2021/06/10 00:29:48;;;;;;;36.83;26.45;;;16.00;85.20;;;;;;5065979;28;20097;-64
2021/06/10 00:32:15;;;;;;;31.67;23.48;;;16.00;84.30;;;;;;5076347;28;20173;-64
2021/06/10 00:34:42;;;;;;;32.25;23.98;;;15.90;84.20;;;;;;5079963;28;20136;-63
2021/06/10 00:37:12;;;;;;;35.83;24.67;;;15.90;83.90;;;;;;5047089;28;20090;-64
2021/06/10 00:39:38;;;;;;;39.67;25.83;;;15.90;83.60;;;;;;5049102;28;20164;-65
2021/06/10 00:42:05;;;;;;;37.72;27.40;;;15.80;82.80;;;;;;5057196;28;20082;-66
2021/06/10 00:44:31;;;;;;;36.28;27.13;;;15.80;83.30;;;;;;5055677;28;20097;-64
2021/06/10 00:46:57;;;;;;;32.72;23.98;;;15.80;83.90;;;;;;5048429;28;20101;-65
2021/06/10 00:49:24;;;;;;;35.95;25.48;;;16.50;86.20;;;;;;5047856;28;20176;-65
2021/06/10 00:51:50;;;;;;;34.63;25.08;;;15.70;84.80;;;;;;5041205;28;20094;-65
2021/06/10 00:54:16;;;;;;;35.75;26.45;;;15.70;84.10;;;;;;5046894;28;20101;-66
2021/06/10 00:56:42;;;;;;;35.63;25.38;;;15.60;84.10;;;;;;5039797;28;20863;-65
2021/06/10 00:59:08;;;;;;;36.05;24.13;;;15.60;84.10;;;;;;5048649;28;20096;-65
2021/06/10 01:01:34;;;;;;;32.90;23.77;;;15.50;83.90;;;;;;5048223;28;20085;-65
2021/06/10 01:04:01;;;;;;;35.58;25.25;;;15.20;83.20;;;;;;5047541;28;20117;-65
2021/06/10 01:06:48;;;;;;;32.13;24.60;;;15.50;83.40;;;;;;5048771;28;20109;-64
2021/06/10 01:09:41;;;;;;;35.05;25.60;;;15.90;87.50;;;;;;5048488;28;20148;-64
2021/06/10 01:12:40;;;;;;;35.22;23.63;;;15.40;85.70;;;;;;5046702;28;20101;-65
2021/06/10 01:15:10;;;;;;;33.85;24.33;;;15.30;85.00;;;;;;5040344;28;20074;-64
2021/06/10 01:17:43;;;;;;;;;;;15.20;85.10;;;;;;5048472;28;20555;-63
2021/06/10 01:20:12;;;;;;;29.80;21.63;;;15.10;83.60;;;;;;5044153;28;20344;-65
2021/06/10 01:22:44;;;;;;;32.67;22.80;;;15.00;83.40;;;;;;5044598;28;20096;-64
2021/06/10 01:25:33;;;;;;;32.22;22.42;;;15.10;83.30;;;;;;5047903;28;20082;-64
2021/06/10 01:28:19;;;;;;;34.78;25.60;;;15.10;84.20;;;;;;5057058;28;20207;-65
2021/06/10 01:30:53;;;;;;;32.03;24.02;;;15.10;83.60;;;;;;5049538;28;20803;-65
2021/06/10 01:33:23;;;;;;;31.05;24.27;;;15.00;83.80;;;;;;5048069;28;20097;-65
2021/06/10 01:35:55;;;;;;;32.83;24.15;;;15.00;84.00;;;;;;5050177;28;20097;-65
2021/06/10 01:38:22;;;;;;;33.28;23.35;;;14.90;84.00;;;;;;5046917;28;20405;-65
2021/06/10 01:40:52;;;;;;;34.72;22.75;;;14.80;83.70;;;;;;5048146;28;20147;-64
2021/06/10 01:43:19;;;;;;;31.85;22.77;;;14.80;84.00;;;;;;5045639;28;20095;-65
2021/06/10 01:45:50;;;;;;;31.27;22.98;;;14.40;86.50;;;;;;5050915;28;20108;-65
2021/06/10 01:48:20;;;;;;;31.60;23.63;;;15.60;85.10;;;;;;5054311;28;20125;-65
2021/06/10 01:50:49;;;;;;;32.38;23.27;;;14.80;85.60;;;;;;5048856;28;20108;-64
2021/06/10 01:53:16;;;;;;;33.97;23.40;;;14.70;83.50;;;;;;5044023;28;20085;-64
2021/06/10 01:55:43;;;;;;;34.45;23.98;;;14.60;84.00;;;;;;5042667;28;20558;-65
2021/06/10 01:58:10;;;;;;;34.17;23.60;;;14.60;84.50;;;;;;5050555;28;20081;-64
2021/06/10 02:00:36;;;;;;;31.60;23.75;;;14.90;85.00;;;;;;5050786;28;20089;-65
2021/06/10 02:03:06;;;;;;;30.30;22.35;;;14.50;85.00;;;;;;5050571;28;20098;-64
2021/06/10 02:05:32;;;;;;;34.17;24.23;;;14.50;85.10;;;;;;5051007;28;20116;-65
2021/06/10 02:08:00;;;;;;;32.88;23.80;;;14.70;86.10;;;;;;5053913;28;20094;-63
2021/06/10 02:10:27;;;;;;;30.73;23.58;;;14.90;86.90;;;;;;5050833;28;20089;-64
2021/06/10 02:12:54;;;;;;;36.53;24.15;;;14.50;86.80;;;;;;5052721;28;20550;-64
2021/06/10 02:15:21;;;;;;;40.90;25.40;;;14.40;88.60;;;;;;5051913;28;20104;-64
2021/06/10 02:17:48;;;;;;;35.22;24.17;;;14.30;88.20;;;;;;5050878;28;20092;-65
2021/06/10 02:20:19;;;;;;;38.67;25.33;;;12.70;88.50;;;;;;5050993;28;20089;-65
2021/06/10 02:22:46;;;;;;;38.25;25.80;;;14.80;90.20;;;;;;5050746;28;20462;-66
2021/06/10 02:25:12;;;;;;;36.00;24.55;;;14.50;88.60;;;;;;5050926;28;20100;-64
2021/06/10 02:27:38;;;;;;;36.50;23.83;;;14.10;88.80;;;;;;5049224;28;20089;-65
2021/06/10 02:30:08;;;;;;;37.45;23.95;;;14.20;87.80;;;;;;5045545;28;20081;-66
2021/06/10 02:32:35;;;;;;;33.10;23.75;;;14.00;88.40;;;;;;5051140;28;20083;-65
2021/06/10 02:35:03;;;;;;;31.55;23.08;;;14.30;89.00;;;;;;5051099;28;20100;-64
2021/06/10 02:37:31;;;;;;;34.60;23.80;;;13.90;88.10;;;;;;5052841;28;20092;-66
2021/06/10 02:39:59;;;;;;;35.03;24.17;;;14.00;87.80;;;;;;5052273;28;20093;-64
2021/06/10 02:42:26;;;;;;;35.13;24.10;;;12.30;88.50;;;;;;5051037;28;20085;-64
2021/06/10 02:44:54;;;;;;;37.20;24.33;;;13.90;88.40;;;;;;5033888;28;20101;-65
2021/06/10 02:47:22;;;;;;;34.33;23.42;;;14.10;88.70;;;;;;5051156;28;20200;-65
2021/06/10 02:49:49;;;;;;;35.58;25.05;;;13.70;90.00;;;;;;5059322;28;20143;-65
2021/06/10 02:52:18;;;;;;;32.70;23.80;;;13.70;88.90;;;;;;5049912;28;20113;-65
2021/06/10 02:54:46;;;;;;;36.85;25.38;;;15.20;90.50;;;;;;5050123;28;20086;-64
2021/06/10 02:57:13;;;;;;;34.03;23.92;;;13.70;89.60;;;;;;5049142;28;20097;-64
2021/06/10 02:59:42;;;;;;;38.15;25.15;;;13.80;89.70;;;;;;5050952;28;20499;-64
2021/06/10 03:02:09;;;;;;;34.53;25.20;;;16.80;90.90;;;;;;5050052;28;20099;-65
2021/06/10 03:04:44;;;;;;;37.22;23.90;;;13.50;90.40;;;;;;5050262;28;20104;-66
2021/06/10 03:07:15;;;;;;;32.92;22.85;;;13.50;89.10;;;;;;5083257;28;20451;-64
2021/06/10 03:09:43;;;;;;;32.65;21.00;;;13.00;89.30;;;;;;5048427;28;20089;-65
2021/06/10 03:12:12;;;;;;;29.95;20.65;;;13.30;90.20;;;;;;5049241;28;20089;-64
2021/06/10 03:14:40;;;;;;;33.45;22.02;;;13.70;89.50;;;;;;5049628;28;20860;-64
2021/06/10 03:17:08;;;;;;;29.10;20.45;;;13.40;88.70;;;;;;5055780;28;20620;-65
2021/06/10 03:19:34;;;;;;;34.25;23.63;;;13.40;88.40;;;;;;5049322;28;20096;-64
2021/06/10 03:22:00;;;;;;;37.92;23.70;;;13.90;88.70;;;;;;5047991;28;20085;-64
2021/06/10 03:24:27;;;;;;;31.67;21.70;;;13.30;87.50;;;;;;5049467;28;20515;-64
2021/06/10 03:26:55;;;;;;;32.15;22.33;;;14.60;88.80;;;;;;5050494;28;20116;-64
2021/06/10 03:29:22;;;;;;;32.50;24.17;;;13.50;87.90;;;;;;5047319;28;20085;-64
2021/06/10 03:31:48;;;;;;;30.10;21.55;;;13.30;88.20;;;;;;5045834;28;20093;-64
2021/06/10 03:34:17;;;;;;;34.17;22.27;;;13.30;87.70;;;;;;5043777;28;20176;-65
2021/06/10 03:36:44;;;;;;;35.42;21.75;;;13.20;87.40;;;;;;5056694;28;20101;-64
2021/06/10 03:39:11;;;;;;;36.05;23.73;;;13.50;88.20;;;;;;5042505;28;20177;-65
2021/06/10 03:41:38;;;;;;;30.42;21.08;;;13.30;89.00;;;;;;5033939;28;20093;-64
2021/06/10 03:44:07;;;;;;;32.17;21.15;;;13.20;87.60;;;;;;5049326;28;20168;-64
2021/06/10 03:46:34;;;;;;;29.52;20.98;;;13.30;89.20;;;;;;5046127;28;20097;-64
2021/06/10 03:49:05;;;;;;;32.97;22.70;;;14.20;89.90;;;;;;5046707;28;20260;-65
2021/06/10 03:51:31;;;;;;;33.95;23.00;;;13.30;88.80;;;;;;5050869;28;20095;-64
2021/06/10 03:53:59;;;;;;;34.38;23.85;;;14.50;89.60;;;;;;5034101;28;20484;-66
2021/06/10 03:56:25;;;;;;;38.80;25.65;;;13.20;89.00;;;;;;5059364;28;20101;-65
2021/06/10 03:58:51;;;;;;;39.63;26.33;;;12.30;90.20;;;;;;5047352;28;20116;-65
2021/06/10 04:01:16;;;;;;;44.08;27.85;;;13.20;90.20;;;;;;5049257;28;20543;-64
2021/06/10 04:03:42;;;;;;;37.10;25.33;;;13.60;91.00;;;;;;5050735;28;20093;-64
2021/06/10 04:06:11;;;;;;;42.85;26.52;;;13.20;90.70;;;;;;5046263;28;20524;-65
2021/06/10 04:08:49;;;;;;;42.78;26.63;;;14.20;91.10;;;;;;5073268;28;20629;-65
2021/06/10 04:11:17;;;;;;;37.92;25.00;;;11.40;91.10;;;;;;5053540;28;20121;-64
2021/06/10 04:13:43;;;;;;;36.28;24.15;;;13.20;91.10;;;;;;5037650;28;20120;-64
2021/06/10 04:16:24;;;;;;;42.15;28.30;;;13.20;90.60;;;;;;5048799;28;20537;-65
2021/06/10 04:18:50;;;;;;;;;;;13.20;90.20;;;;;;5044150;28;20097;-64
2021/06/10 04:21:17;;;;;;;49.95;30.17;;;13.00;90.30;;;;;;5047432;28;20006;-64
2021/06/10 04:23:45;;;;;;;52.95;32.75;;;13.20;90.80;;;;;;5046982;28;20119;-65
2021/06/10 04:26:11;;;;;;;45.08;30.50;;;12.70;90.60;;;;;;5047962;28;20162;-64
2021/06/10 04:28:44;;;;;;;48.58;31.95;;;14.00;91.20;;;;;;5049285;28;20097;-65
2021/06/10 04:31:10;;;;;;;45.05;29.45;;;13.10;90.30;;;;;;5037188;28;20101;-65
2021/06/10 04:33:35;;;;;;;46.58;28.48;;;13.40;90.10;;;;;;5048311;28;20093;-64
2021/06/10 04:36:01;;;;;;;40.45;27.83;;;14.10;90.90;;;;;;5030843;28;20469;-63
2021/06/10 04:38:35;;;;;;;52.97;32.35;;;13.60;91.50;;;;;;5048460;28;20086;-64
2021/06/10 04:41:02;;;;;;;42.83;27.75;;;12.20;90.50;;;;;;5051706;28;20093;-64
2021/06/10 04:43:40;;;;;;;48.25;29.90;;;12.10;90.50;;;;;;5049873;28;20097;-64
2021/06/10 04:46:06;;;;;;;50.80;32.30;;;13.40;91.20;;;;;;5049718;28;20573;-64
2021/06/10 04:48:32;;;;;;;53.55;32.78;;;13.70;90.90;;;;;;5050542;28;20212;-65
2021/06/10 04:52:12;;;;;;;51.75;32.13;;;13.60;91.20;;;;;;5048855;28;20112;-63
2021/06/10 04:54:40;;;;;;;59.17;34.55;;;13.80;91.30;;;;;;5040111;28;20088;-64
2021/06/10 04:57:07;;;;;;;53.22;32.58;;;15.60;92.40;;;;;;5046401;28;20100;-64
2021/06/10 04:59:33;;;;;;;61.45;35.65;;;12.20;92.60;;;;;;5046086;28;20141;-64
2021/06/10 05:02:01;;;;;;;53.90;33.17;;;15.10;92.00;;;;;;5046994;28;20093;-64
2021/06/10 05:04:27;;;;;;;57.35;34.88;;;13.50;92.60;;;;;;5047972;28;20101;-65
2021/06/10 05:06:53;;;;;;;56.05;35.03;;;13.30;91.60;;;;;;5047070;28;20102;-63
2021/06/10 05:09:21;;;;;;;54.25;33.80;;;14.00;91.50;;;;;;5049930;28;20544;-64
2021/06/10 05:11:47;;;;;;;53.53;33.25;;;14.10;91.30;;;;;;5047329;28;20093;-63
2021/06/10 05:14:13;;;;;;;58.08;36.67;;;14.00;90.90;;;;;;5078024;28;20505;-64
2021/06/10 05:16:39;;;;;;;53.15;33.08;;;14.40;91.00;;;;;;5048493;28;20090;-64
2021/06/10 05:19:05;;;;;;;59.88;36.13;;;14.20;91.00;;;;;;5049340;28;20450;-63
2021/06/10 05:21:33;;;;;;;56.33;33.60;;;14.30;91.40;;;;;;5051956;28;20093;-65
2021/06/10 05:23:59;;;;;;;50.88;32.40;;;15.90;91.10;;;;;;5032803;28;20402;-64
2021/06/10 05:26:26;;;;;;;51.53;32.85;;;14.30;91.10;;;;;;5051682;28;20101;-64
2021/06/10 05:28:55;;;;;;;61.83;36.78;;;14.40;91.10;;;;;;5055752;28;20097;-65
2021/06/10 05:31:22;;;;;;;57.35;36.20;;;14.50;91.10;;;;;;5049037;28;20546;-64
2021/06/10 05:33:52;;;;;;;62.15;36.58;;;14.40;90.80;;;;;;5049160;28;20155;-64
2021/06/10 05:36:18;;;;;;;56.28;33.63;;;14.70;91.10;;;;;;5047736;28;20097;-64
2021/06/10 05:38:43;;;;;;;59.90;36.58;;;14.70;91.00;;;;;;5055609;28;20100;-63
2021/06/10 05:41:10;;;;;;;67.85;40.15;;;14.80;93.20;;;;;;5053497;28;20109;-64
2021/06/10 05:43:36;;;;;;;65.40;40.90;;;14.90;93.30;;;;;;5055274;28;20558;-64
2021/06/10 05:46:02;;;;;;;65.18;38.83;;;15.30;92.90;;;;;;5051806;28;20490;-64
2021/06/10 05:48:28;;;;;;;68.30;38.78;;;15.40;93.10;;;;;;5047349;28;20124;-65
2021/06/10 05:50:54;;;;;;;65.18;37.70;;;15.20;93.00;;;;;;5053889;28;20089;-64
2021/06/10 05:53:20;;;;;;;69.30;40.20;;;15.60;93.30;;;;;;5055287;28;20563;-64
2021/06/10 05:55:48;;;;;;;61.28;36.20;;;15.40;92.80;;;;;;5052975;28;20094;-64
2021/06/10 05:58:15;;;;;;;67.63;37.30;;;15.70;92.10;;;;;;5054250;28;20082;-64
2021/06/10 06:00:41;;;;;;;55.33;36.90;;;15.60;92.10;;;;;;5073610;28;20101;-64
2021/06/10 06:03:08;;;;;;;56.83;33.08;;;15.70;92.00;;;;;;5053963;28;20086;-63
2021/06/10 06:05:35;;;;;;;54.67;32.13;;;15.60;91.20;;;;;;5043303;28;20090;-64
2021/06/10 06:08:01;;;;;;;52.00;31.88;;;15.90;91.40;;;;;;5050147;28;20089;-64
2021/06/10 06:10:28;;;;;;;55.92;33.13;;;15.80;91.40;;;;;;5051113;28;20089;-64
2021/06/10 06:13:02;;;;;;;56.17;31.88;;;16.00;91.20;;;;;;5049637;28;20110;-64
2021/06/10 06:15:35;;;;;;;46.25;30.00;;;16.20;90.80;;;;;;5053034;28;20088;-64
2021/06/10 06:18:01;;;;;;;46.63;25.75;;;16.00;90.70;;;;;;5061109;28;20089;-63
2021/06/10 06:20:28;;;;;;;49.20;28.00;;;16.30;90.70;;;;;;5046170;28;20148;-65
2021/06/10 06:22:54;;;;;;;44.65;27.40;;;15.10;89.20;;;;;;5045264;28;20090;-65
2021/06/10 06:25:21;;;;;;;36.45;19.55;;;16.60;90.00;;;;;;5043770;28;20573;-64
2021/06/10 06:27:48;;;;;;;36.38;23.80;;;16.70;88.40;;;;;;5055727;28;20117;-64
2021/06/10 06:30:15;;;;;;;41.05;23.85;;;16.80;87.70;;;;;;5050918;28;20524;-65
2021/06/10 06:32:41;;;;;;;37.20;22.75;;;16.90;86.90;;;;;;5058248;28;20542;-65
2021/06/10 06:35:15;;;;;;;33.40;20.75;;;16.80;84.70;;;;;;5053096;28;20086;-64
2021/06/10 06:38:01;;;;;;;27.58;19.10;;;17.30;84.00;;;;;;5079003;28;20101;-64
2021/06/10 06:40:29;;;;;;;38.35;21.85;;;17.20;84.40;;;;;;5050430;28;20089;-64
2021/06/10 06:42:57;;;;;;;32.13;21.65;;;17.30;84.60;;;;;;5042345;28;20101;-64
2021/06/10 06:45:22;;;;;;;34.25;20.92;;;17.40;84.20;;;;;;5051998;28;20112;-65
2021/06/10 06:47:49;;;;;;;31.90;19.38;;;17.60;83.60;;;;;;5052366;28;20570;-63
2021/06/10 06:50:17;;;;;;;27.75;19.65;;;17.70;83.40;;;;;;5050822;28;20089;-65
2021/06/10 06:52:55;;;;;;;22.65;15.25;;;16.30;78.30;;;;;;5050279;28;20461;-65
2021/06/10 06:55:21;;;;;;;25.42;16.52;;;17.90;79.20;;;;;;5050246;28;20088;-65
2021/06/10 06:57:47;;;;;;;30.08;19.20;;;17.90;79.30;;;;;;5050906;28;20563;-67
2021/06/10 07:00:13;;;;;;;23.73;14.88;;;18.00;79.60;;;;;;5054814;28;20095;-65
2021/06/10 07:02:40;;;;;;;21.23;13.90;;;18.10;78.10;;;;;;5050355;28;20101;-65
2021/06/10 07:05:08;;;;;;;20.00;13.80;;;17.30;73.10;;;;;;5050478;28;20089;-65
2021/06/10 07:07:42;;;;;;;19.73;14.13;;;18.20;74.10;;;;;;5043296;28;20537;-66
2021/06/10 07:10:14;;;;;;;19.60;13.43;;;18.30;72.80;;;;;;5049516;28;20198;-64
2021/06/10 07:12:48;;;;;;;21.88;14.40;;;18.40;74.10;;;;;;5050854;28;20114;-65
2021/06/10 07:15:14;;;;;;;20.20;14.43;;;18.50;72.80;;;;;;5050496;28;20090;-65
2021/06/10 07:17:42;;;;;;;19.98;13.85;;;18.60;73.80;;;;;;5049649;28;20089;-64
2021/06/10 07:20:09;;;;;;;17.27;12.52;;;18.60;73.80;;;;;;5050177;28;20509;-65
2021/06/10 07:22:45;;;;;;;20.67;13.48;;;18.90;73.30;;;;;;5051680;28;20200;-65
2021/06/10 07:25:11;;;;;;;19.92;13.70;;;19.50;71.00;;;;;;5082675;28;20087;-64
2021/06/10 07:27:48;;;;;;;22.00;14.48;;;20.30;68.30;;;;;;5049596;28;20093;-65
2021/06/10 07:30:16;;;;;;;16.88;11.70;;;21.00;65.20;;;;;;5048329;28;20100;-65
2021/06/10 07:32:44;;;;;;;19.98;15.13;;;21.70;61.60;;;;;;5038130;28;20099;-65
2021/06/10 07:35:21;;;;;;;18.45;14.23;;;22.00;57.70;;;;;;5055763;28;20135;-65
2021/06/10 07:37:50;;;;;;;19.90;15.15;;;22.80;59.70;;;;;;5050083;28;20089;-66
2021/06/10 07:40:17;;;;;;;19.17;14.85;;;23.10;56.80;;;;;;5047203;28;20633;-65
2021/06/10 07:42:44;;;;;;;16.87;13.90;;;23.20;57.50;;;;;;5058960;28;20093;-64
2021/06/10 07:45:11;;;;;;;20.50;12.55;;;23.70;55.90;;;;;;5050996;28;20089;-65
2021/06/10 07:47:38;;;;;;;17.65;13.82;;;24.10;55.40;;;;;;5049159;28;20107;-66
2021/06/10 07:50:07;;;;;;;15.32;12.25;;;24.60;53.10;;;;;;5050289;28;20213;-65
2021/06/10 07:52:33;;;;;;;16.93;12.87;;;24.70;48.80;;;;;;5049427;28;20626;-64
2021/06/10 07:54:59;;;;;;;14.88;12.35;;;25.10;50.70;;;;;;5049919;28;20112;-65
2021/06/10 07:57:25;;;;;;;17.50;12.68;;;25.10;50.80;;;;;;5054609;28;20192;-65
2021/06/10 07:59:51;;;;;;;17.15;11.82;;;25.50;48.10;;;;;;5054536;28;20121;-65
2021/06/10 08:02:17;;;;;;;15.23;12.13;;;25.70;47.40;;;;;;5049571;28;20589;-65
2021/06/10 08:04:43;;;;;;;14.45;11.90;;;25.90;47.80;;;;;;5050552;28;20094;-66
2021/06/10 08:07:11;;;;;;;17.92;12.50;;;25.80;46.50;;;;;;5048542;28;20604;-65
2021/06/10 08:09:38;;;;;;;14.95;12.10;;;25.80;46.70;;;;;;5048606;28;20097;-66
2021/06/10 08:12:04;;;;;;;15.10;12.43;;;25.70;45.40;;;;;;5080575;28;20089;-66
2021/06/10 08:14:30;;;;;;;18.20;13.52;;;25.50;46.80;;;;;;5050206;28;20100;-65
2021/06/10 08:16:56;;;;;;;16.23;12.57;;;25.70;45.90;;;;;;5053833;28;20093;-65
2021/06/10 08:19:22;;;;;;;14.45;11.15;;;26.00;45.70;;;;;;5052012;28;21141;-65
2021/06/10 08:21:48;;;;;;;12.70;11.10;;;26.00;46.20;;;;;;5053834;28;20096;-65
2021/06/10 08:24:15;;;;;;;16.38;11.80;;;26.10;45.30;;;;;;5047610;28;20081;-64
2021/06/10 08:26:44;;;;;;;13.75;11.32;;;26.00;45.10;;;;;;5044937;28;20760;-65
2021/06/10 08:29:12;;;;;;;14.75;11.30;;;25.70;45.50;;;;;;5048860;28;20163;-65
2021/06/10 08:31:38;;;;;;;13.25;10.63;;;25.40;47.00;;;;;;5054361;28;20111;-66
2021/06/10 08:34:04;;;;;;;14.63;11.75;;;25.50;46.90;;;;;;5080761;28;20089;-65
2021/06/10 08:36:30;;;;;;;13.57;10.43;;;25.40;47.00;;;;;;5046984;28;20222;-65
2021/06/10 08:38:57;;;;;;;16.17;10.73;;;25.70;45.70;;;;;;5049038;28;20115;-63
2021/06/10 08:41:25;;;;;;;14.73;10.88;;;25.70;46.70;;;;;;5053714;28;20124;-65
2021/06/10 08:43:52;;;;;;;;;;;25.50;46.00;;;;;;5049690;28;20779;-65
2021/06/10 08:46:21;;;;;;;13.88;9.95;;;25.40;45.70;;;;;;5054900;28;19992;-64
2021/06/10 08:48:49;;;;;;;11.98;9.68;;;25.20;46.90;;;;;;5051300;28;20151;-67
2021/06/10 08:51:15;;;;;;;13.20;10.32;;;25.50;44.50;;;;;;5054656;28;20119;-64
2021/06/10 08:53:42;;;;;;;15.07;9.75;;;25.60;45.40;;;;;;5049269;28;20109;-65
2021/06/10 08:56:11;;;;;;;12.85;10.70;;;25.10;47.00;;;;;;5047304;28;20431;-65
2021/06/10 08:58:38;;;;;;;13.30;10.82;;;25.40;46.20;;;;;;5050706;28;20096;-65
2021/06/10 09:01:05;;;;;;;14.02;10.25;;;25.50;45.80;;;;;;5048711;28;20090;-63
2021/06/10 09:03:34;;;;;;;11.52;9.50;;;25.90;46.10;;;;;;5050400;28;20168;-64
2021/06/10 09:06:05;;;;;;;9.53;8.00;;;26.10;45.90;;;;;;5051897;28;20108;-64
2021/06/10 09:08:33;;;;;;;9.23;6.15;;;26.50;44.40;;;;;;5048221;28;20401;-66
2021/06/10 09:11:02;;;;;;;;;;;26.80;42.90;;;;;;5046847;28;20087;-64
2021/06/10 09:13:41;;;;;;;6.82;4.63;;;26.70;39.20;;;;;;5051975;28;20063;-64
2021/06/10 09:16:25;;;;;;;;;;;26.60;39.00;;;;;;5050600;28;20117;-64
2021/06/10 09:19:15;;;;;;;8.18;5.20;;;26.50;38.50;;;;;;5052249;28;19969;-65
2021/06/10 09:21:56;;;;;;;7.18;5.55;;;26.40;38.90;;;;;;5054794;28;20168;-64
2021/06/10 09:24:23;;;;;;;8.43;5.50;;;26.40;39.60;;;;;;5048904;28;20116;-65
2021/06/10 09:27:10;;;;;;;6.82;5.80;;;26.50;40.40;;;;;;5048386;28;20109;-64
2021/06/10 09:29:51;;;;;;;6.57;5.32;;;26.70;40.80;;;;;;5046796;28;20089;-64
2021/06/10 09:32:17;;;;;;;9.52;6.07;;;27.00;40.10;;;;;;5051031;28;20090;-64
2021/06/10 09:34:48;;;;;;;10.32;7.18;;;27.10;39.30;;;;;;5046267;28;20131;-64
2021/06/10 09:37:22;;;;;;;12.45;7.00;;;27.00;39.40;;;;;;5048084;28;20112;-64
2021/06/10 09:39:53;;;;;;;11.52;7.63;;;27.00;39.70;;;;;;5044677;28;20759;-64
2021/06/10 09:42:36;;;;;;;8.82;7.65;;;27.00;40.10;;;;;;5044783;28;20478;-63
2021/06/10 09:45:24;;;;;;;9.05;6.80;;;26.90;39.90;;;;;;5048786;28;20112;-64
2021/06/10 09:48:00;;;;;;;9.57;7.32;;;27.00;40.70;;;;;;5027870;28;20098;-64
2021/06/10 09:50:30;;;;;;;8.75;7.50;;;26.70;41.60;;;;;;5078193;28;20120;-65
2021/06/10 09:53:16;;;;;;;10.82;7.05;;;26.60;41.60;;;;;;5052418;28;20461;-65
2021/06/10 09:55:46;;;;;;;8.43;6.55;;;26.30;41.90;;;;;;5053605;28;20170;-65
2021/06/10 09:58:12;;;;;;;8.95;7.18;;;26.30;41.80;;;;;;5054936;28;20093;-63
2021/06/10 10:00:50;;;;;;;10.07;7.72;;;26.20;42.50;;;;;;5048100;28;20086;-63
2021/06/10 10:03:25;;;;;;;10.53;6.83;;;26.20;43.10;;;;;;5046938;28;20143;-64
2021/06/10 10:06:05;;;;;;;9.10;6.10;;;26.20;43.30;;;;;;5049599;28;20500;-63
2021/06/10 10:08:53;;;;;;;10.82;6.47;;;26.30;42.30;;;;;;5048953;28;20097;-63
2021/06/10 10:11:20;;;;;;;14.20;6.13;;;26.40;41.00;;;;;;5054676;28;20085;-63
2021/06/10 10:13:48;;;;;;;7.53;5.35;;;26.30;41.80;;;;;;5055584;28;20143;-64
2021/06/10 10:16:14;;;;;;;8.77;5.22;;;26.30;42.10;;;;;;5050661;28;20168;-63
2021/06/10 10:18:43;;;;;;;8.38;5.85;;;26.50;42.30;;;;;;5053147;28;20094;-62
2021/06/10 10:21:12;;;;;;;10.10;6.07;;;26.60;41.60;;;;;;5050953;28;20077;-64
2021/06/10 10:23:38;;;;;;;8.43;5.65;;;26.70;41.60;;;;;;5056645;28;20168;-64
2021/06/10 10:26:06;;;;;;;8.05;6.07;;;26.90;41.30;;;;;;5054394;28;20562;-64
2021/06/10 10:28:34;;;;;;;;;;;26.70;41.30;;;;;;5050502;28;20109;-63
2021/06/10 10:31:03;;;;;;;7.60;5.22;;;26.80;41.90;;;;;;5059401;28;19973;-64
2021/06/10 10:33:29;;;;;;;;;;;26.80;42.40;;;;;;5048460;28;20086;-63
2021/06/10 10:36:00;;;;;;;7.95;5.60;;;26.70;41.90;;;;;;5056492;28;19987;-64
2021/06/10 10:38:33;;;;;;;11.25;7.55;;;26.70;42.70;;;;;;5047634;28;20197;-65
2021/06/10 10:41:09;;;;;;;8.38;6.15;;;26.70;41.50;;;;;;5057714;28;20096;-64
2021/06/10 10:43:35;;;;;;;10.30;6.97;;;26.70;42.10;;;;;;5053043;28;20497;-65
2021/06/10 10:46:05;;;;;;;8.95;6.70;;;26.60;42.90;;;;;;5052615;28;20113;-65
2021/06/10 10:48:37;;;;;;;10.32;6.47;;;26.60;42.40;;;;;;5050998;28;20144;-65
2021/06/10 10:51:38;;;;;;;16.95;7.07;;;25.90;41.30;;;;;;5049294;28;20097;-64
2021/06/10 10:54:25;;;;;;;9.98;7.05;;;26.70;42.80;;;;;;5059255;28;20442;-64
2021/06/10 10:56:51;;;;;;;10.15;6.78;;;26.70;43.00;;;;;;5049134;28;20097;-65
2021/06/10 10:59:19;;;;;;;9.52;6.75;;;26.50;43.40;;;;;;5046965;28;20097;-65
2021/06/10 11:02:08;;;;;;;10.50;7.93;;;26.60;43.40;;;;;;5046300;28;20089;-64
2021/06/10 11:04:55;;;;;;;10.63;7.30;;;26.70;43.50;;;;;;5051111;28;20108;-64
2021/06/10 11:07:37;;;;;;;8.57;6.88;;;26.70;43.60;;;;;;5047391;28;20552;-64
2021/06/10 11:10:04;;;;;;;8.00;6.68;;;26.90;44.30;;;;;;5050317;28;20090;-64
2021/06/10 11:12:41;;;;;;;9.90;6.25;;;27.40;44.30;;;;;;5049087;28;20089;-64
2021/06/10 11:15:48;;;;;;;10.07;7.40;;;27.10;43.00;;;;;;5049621;28;20609;-66
2021/06/10 11:18:34;;;;;;;9.55;7.53;;;27.10;42.20;;;;;;5046601;28;20106;-65
2021/06/10 11:21:00;;;;;;;8.93;7.43;;;27.30;42.50;;;;;;5046390;28;20085;-63
2021/06/10 11:23:27;;;;;;;11.50;7.63;;;27.40;42.90;;;;;;5039888;28;20120;-64
2021/06/10 11:25:57;;;;;;;9.25;7.20;;;27.60;42.40;;;;;;5047274;28;20113;-64
2021/06/10 11:28:24;;;;;;;10.23;8.25;;;27.70;42.20;;;;;;5050312;28;20086;-66
2021/06/10 11:30:54;;;;;;;10.18;7.60;;;27.90;41.50;;;;;;5055203;28;20097;-66
2021/06/10 11:33:21;;;;;;;9.93;6.43;;;27.70;42.00;;;;;;5050599;28;20092;-65
2021/06/10 11:35:49;;;;;;;8.32;6.90;;;27.70;42.10;;;;;;5058012;28;20089;-65
2021/06/10 11:38:24;;;;;;;11.52;7.68;;;27.80;41.70;;;;;;5059369;28;20093;-65
2021/06/10 11:41:03;;;;;;;9.20;7.18;;;27.70;42.20;;;;;;5082002;28;20089;-65
2021/06/10 11:43:30;;;;;;;11.10;7.65;;;27.80;41.90;;;;;;5054716;28;20160;-65
2021/06/10 11:45:59;;;;;;;10.02;6.70;;;28.00;42.40;;;;;;5050459;28;20136;-64
2021/06/10 11:48:35;;;;;;;8.45;6.32;;;28.10;41.50;;;;;;5050788;28;20133;-65
2021/06/10 11:51:02;;;;;;;7.07;5.38;;;28.10;40.60;;;;;;5048324;28;20551;-64
2021/06/10 11:53:29;;;;;;;10.15;7.65;;;28.10;40.60;;;;;;5055982;28;20120;-66
2021/06/10 11:55:57;;;;;;;8.80;6.57;;;27.80;40.40;;;;;;5043765;28;20097;-66
2021/06/10 11:58:29;;;;;;;9.75;7.28;;;28.20;40.90;;;;;;5032083;28;20100;-65
2021/06/10 12:00:57;;;;;;;10.20;6.95;;;28.00;40.70;;;;;;5050480;28;20090;-64
2021/06/10 12:03:34;;;;;;;9.75;7.65;;;28.60;41.80;;;;;;5057005;28;20302;-64
2021/06/10 12:06:00;;;;;;;10.65;7.40;;;28.00;41.00;;;;;;5047244;28;20147;-64
2021/06/10 12:08:34;;;;;;;9.93;7.07;;;28.20;41.00;;;;;;5059160;28;20101;-65
2021/06/10 12:11:11;;;;;;;8.55;5.93;;;28.30;40.50;;;;;;5053058;28;20851;-64
2021/06/10 12:13:47;;;;;;;16.98;7.28;;;28.30;40.90;;;;;;5057622;28;20085;-64
2021/06/10 12:16:15;;;;;;;15.85;6.40;;;28.70;40.50;;;;;;5046403;28;20138;-63
2021/06/10 12:18:43;;;;;;;10.43;6.63;;;28.40;40.90;;;;;;5039459;28;20466;-64
2021/06/10 12:21:14;;;;;;;8.43;6.00;;;28.50;39.10;;;;;;5050271;28;20093;-66
2021/06/10 12:23:51;;;;;;;8.43;6.20;;;28.70;38.30;;;;;;5044534;28;20459;-64
2021/06/10 12:26:19;;;;;;;8.48;6.40;;;28.70;39.00;;;;;;5048257;28;20104;-64
2021/06/10 12:28:50;;;;;;;8.30;6.97;;;28.50;39.10;;;;;;5047871;28;20176;-66
2021/06/10 12:31:18;;;;;;;10.43;6.95;;;28.60;37.70;;;;;;5046409;28;20136;-64
2021/06/10 12:33:46;;;;;;;;;;;28.50;38.90;;;;;;5042244;28;20090;-66
2021/06/10 12:36:18;;;;;;;5.93;4.32;;;28.60;39.00;;;;;;5055081;28;20579;-65
2021/06/10 12:38:56;;;;;;;7.97;4.20;;;28.70;37.50;;;;;;5044140;28;20139;-66
2021/06/10 12:41:34;;;;;;;5.97;4.10;;;28.90;36.90;;;;;;5046298;28;20085;-65
2021/06/10 12:44:06;;;;;;;5.30;4.10;;;28.80;35.90;;;;;;5038385;28;20086;-65
2021/06/10 12:46:55;;;;;;;5.10;3.97;;;29.10;36.20;;;;;;5049448;28;20118;-64